createdAt,value
2023-01-05T00:00:36.563Z,101308.91
2023-01-05T00:03:10.970Z,101300.91
2023-01-05T00:05:37.597Z,101309.00
2023-01-05T00:08:10.858Z,101296.88
2023-01-05T00:11:02.827Z,101307.59
2023-01-05T00:13:48.032Z,101302.50
2023-01-05T00:16:40.947Z,101304.19
2023-01-05T00:19:36.169Z,101292.72
2023-01-05T00:22:27.975Z,101298.66
2023-01-05T00:25:03.558Z,101301.00
2023-01-05T00:27:42.916Z,101317.97
2023-01-05T00:30:11.592Z,101319.75
2023-01-05T00:32:38.394Z,101316.88
2023-01-05T00:35:11.996Z,101312.41
2023-01-05T00:37:39.451Z,101310.59
2023-01-05T00:40:14.861Z,101309.31
2023-01-05T00:42:42.138Z,101305.88
2023-01-05T00:45:18.870Z,101312.50
2023-01-05T00:47:45.702Z,101310.34
2023-01-05T00:50:23.926Z,101319.22
2023-01-05T00:52:50.649Z,101312.91
2023-01-05T00:55:23.900Z,101314.72
2023-01-05T00:57:57.277Z,101312.91
2023-01-05T01:00:30.925Z,101321.88
2023-01-05T01:02:57.603Z,101325.28
2023-01-05T01:05:30.855Z,101317.72
2023-01-05T01:08:03.921Z,101319.53
2023-01-05T01:10:36.955Z,101327.63
2023-01-05T01:13:03.624Z,101318.78
2023-01-05T01:15:36.882Z,101320.38
2023-01-05T01:18:16.960Z,101323.28
2023-01-05T01:20:43.707Z,101319.75
2023-01-05T01:23:16.911Z,101331.38
2023-01-05T01:25:43.651Z,101341.81
2023-01-05T01:28:16.948Z,101345.00
2023-01-05T01:30:43.697Z,101339.34
2023-01-05T01:33:16.980Z,101344.25
2023-01-05T01:35:43.896Z,101347.91
2023-01-05T01:38:16.893Z,101356.72
2023-01-05T01:40:50.767Z,101363.91
2023-01-05T01:43:28.028Z,101363.16
2023-01-05T01:46:02.017Z,101374.00
2023-01-05T01:48:35.071Z,101367.41
2023-01-05T01:51:13.012Z,101361.25
2023-01-05T01:53:44.357Z,101376.03
2023-01-05T01:56:21.974Z,101374.34
2023-01-05T01:58:55.110Z,101385.63
2023-01-05T02:01:28.999Z,101382.09
2023-01-05T02:03:56.632Z,101373.19
2023-01-05T02:06:30.013Z,101367.41
2023-01-05T02:08:56.971Z,101369.97
2023-01-05T02:11:58.985Z,101400.00
2023-01-05T02:14:46.085Z,101390.44
2023-01-05T02:17:46.961Z,101397.34
2023-01-05T02:20:24.338Z,101382.69
2023-01-05T02:23:35.281Z,101402.03
2023-01-05T02:26:07.806Z,101389.91
2023-01-05T02:29:20.944Z,101388.84
2023-01-05T02:32:19.955Z,101405.69
2023-01-05T02:35:13.256Z,101386.50
2023-01-05T02:38:02.968Z,101400.34
2023-01-05T02:40:45.997Z,101402.16
2023-01-05T02:43:15.368Z,101391.84
2023-01-05T02:45:49.036Z,101395.25
2023-01-05T02:48:23.104Z,101401.75
2023-01-05T02:51:07.860Z,101397.66
2023-01-05T02:53:46.923Z,101383.28
2023-01-05T02:56:31.965Z,101400.47
2023-01-05T02:59:21.260Z,101396.06
2023-01-05T03:02:09.132Z,101404.19
2023-01-05T03:04:47.029Z,101400.06
2023-01-05T03:07:24.981Z,101403.53
2023-01-05T03:09:52.195Z,101414.41
2023-01-05T03:12:59.005Z,101397.88
2023-01-05T03:15:30.491Z,101404.06
2023-01-05T03:18:12.009Z,101398.00
2023-01-05T03:20:42.243Z,101402.56
2023-01-05T03:23:37.017Z,101414.41
2023-01-05T03:26:29.993Z,101408.09
2023-01-05T03:29:24.989Z,101411.94
2023-01-05T03:32:18.607Z,101414.06
2023-01-05T03:35:26.940Z,101420.56
2023-01-05T03:38:04.369Z,101406.81
2023-01-05T03:40:44.300Z,101427.06
2023-01-05T03:43:10.948Z,101419.19
2023-01-05T03:45:56.990Z,101420.88
2023-01-05T03:48:25.840Z,101426.97
2023-01-05T03:51:00.376Z,101413.09
2023-01-05T03:53:34.122Z,101391.28
2023-01-05T03:56:07.067Z,101398.94
2023-01-05T03:58:40.104Z,101418.03
2023-01-05T04:01:14.121Z,101417.06
2023-01-05T04:03:43.495Z,101424.41
2023-01-05T04:06:16.944Z,101433.03
2023-01-05T04:08:50.021Z,101431.00
2023-01-05T04:11:19.543Z,101440.69
2023-01-05T04:14:00.059Z,101425.56
2023-01-05T04:16:28.878Z,101441.53
2023-01-05T04:19:02.035Z,101446.22
2023-01-05T04:21:28.733Z,101448.25
2023-01-05T04:24:02.246Z,101449.63
2023-01-05T04:26:28.853Z,101463.78
2023-01-05T04:28:55.437Z,101451.97
2023-01-05T04:31:29.160Z,101455.78
2023-01-05T04:33:55.947Z,101462.25
2023-01-05T04:36:29.024Z,101469.59
2023-01-05T04:38:55.750Z,101471.50
2023-01-05T04:41:28.973Z,101469.91
2023-01-05T04:44:01.978Z,101471.72
2023-01-05T04:46:35.051Z,101466.50
2023-01-05T04:49:08.037Z,101476.38
2023-01-05T04:51:42.146Z,101459.97
2023-01-05T04:54:08.876Z,101472.41
2023-01-05T04:56:42.068Z,101480.28
2023-01-05T04:59:15.453Z,101479.34
2023-01-05T05:01:49.175Z,101487.53
2023-01-05T05:04:15.973Z,101482.41
2023-01-05T05:06:49.144Z,101483.28
2023-01-05T05:09:16.051Z,101488.38
2023-01-05T05:11:49.032Z,101495.13
2023-01-05T05:14:22.062Z,101499.41
2023-01-05T05:16:55.018Z,101494.16
2023-01-05T05:19:28.061Z,101495.88
2023-01-05T05:21:54.961Z,101505.56
2023-01-05T05:24:28.141Z,101505.75
2023-01-05T05:26:54.846Z,101502.13
2023-01-05T05:29:28.035Z,101503.75
2023-01-05T05:31:54.846Z,101507.81
2023-01-05T05:34:28.172Z,101525.38
2023-01-05T05:37:01.147Z,101518.56
2023-01-05T05:39:27.862Z,101521.63
2023-01-05T05:42:01.081Z,101524.59
2023-01-05T05:44:27.804Z,101535.63
2023-01-05T05:47:01.121Z,101529.75
2023-01-05T05:49:27.747Z,101540.78
2023-01-05T05:52:01.064Z,101549.53
2023-01-05T05:54:27.722Z,101555.06
2023-01-05T05:57:08.045Z,101553.44
2023-01-05T05:59:41.420Z,101555.25
2023-01-05T06:02:14.207Z,101554.66
2023-01-05T06:04:40.866Z,101553.19
2023-01-05T06:07:14.096Z,101550.69
2023-01-05T06:09:40.778Z,101562.84
2023-01-05T06:12:14.005Z,101559.22
2023-01-05T06:14:47.030Z,101560.41
2023-01-05T06:17:20.087Z,101570.06
2023-01-05T06:19:53.019Z,101578.16
2023-01-05T06:22:19.718Z,101570.28
2023-01-05T06:24:53.000Z,101578.34
2023-01-05T06:27:19.691Z,101575.50
2023-01-05T06:29:53.098Z,101574.63
2023-01-05T06:32:19.757Z,101570.28
2023-01-05T06:34:53.119Z,101574.63
2023-01-05T06:37:19.728Z,101584.25
2023-01-05T06:39:53.152Z,101583.28
2023-01-05T06:42:23.399Z,101591.16
2023-01-05T06:44:57.002Z,101589.47
2023-01-05T06:47:23.760Z,101593.09
2023-01-05T06:49:57.117Z,101596.47
2023-01-05T06:52:30.068Z,101590.31
2023-01-05T06:54:56.774Z,101596.31
2023-01-05T06:57:31.035Z,101611.13
2023-01-05T07:00:04.231Z,101595.06
2023-01-05T07:02:37.173Z,101605.41
2023-01-05T07:05:04.521Z,101606.47
2023-01-05T07:07:38.106Z,101602.19
2023-01-05T07:10:05.538Z,101615.38
2023-01-05T07:12:39.065Z,101620.34
2023-01-05T07:15:06.656Z,101623.94
2023-01-05T07:17:33.306Z,101619.38
2023-01-05T07:20:06.181Z,101616.59
2023-01-05T07:22:32.850Z,101631.53
2023-01-05T07:25:06.155Z,101632.31
2023-01-05T07:27:33.012Z,101626.22
2023-01-05T07:30:06.174Z,101637.41
2023-01-05T07:32:32.845Z,101647.09
2023-01-05T07:35:06.117Z,101644.53
2023-01-05T07:37:32.684Z,101645.41
2023-01-05T07:40:06.078Z,101643.59
2023-01-05T07:42:33.325Z,101642.63
2023-01-05T07:45:07.139Z,101653.84
2023-01-05T07:47:33.965Z,101652.16
2023-01-05T07:50:02.005Z,101657.47
2023-01-05T07:52:37.117Z,101662.69
2023-01-05T07:55:03.931Z,101670.69
2023-01-05T07:57:37.078Z,101675.25
2023-01-05T08:00:11.214Z,101675.34
2023-01-05T08:02:45.211Z,101678.75
2023-01-05T08:05:19.133Z,101679.63
2023-01-05T08:07:52.176Z,101681.31
2023-01-05T08:10:30.966Z,101687.41
2023-01-05T08:13:30.107Z,101686.38
2023-01-05T08:16:00.817Z,101689.97
2023-01-05T08:18:35.104Z,101691.69
2023-01-05T08:21:11.162Z,101675.66
2023-01-05T08:23:38.544Z,101686.38
2023-01-05T08:26:16.120Z,101669.34
2023-01-05T08:28:50.109Z,101694.38
2023-01-05T08:31:27.253Z,101700.25
2023-01-05T08:34:06.203Z,101710.91
2023-01-05T08:36:33.459Z,101711.81
2023-01-05T08:39:08.193Z,101706.81
2023-01-05T08:41:44.258Z,101720.03
2023-01-05T08:44:13.522Z,101725.69
2023-01-05T08:46:47.127Z,101711.28
2023-01-05T08:49:20.202Z,101731.78
2023-01-05T08:51:53.199Z,101740.53
2023-01-05T08:54:26.174Z,101735.00
2023-01-05T08:56:53.130Z,101742.06
2023-01-05T08:59:33.157Z,101734.34
2023-01-05T09:01:59.909Z,101749.97
2023-01-05T09:04:34.540Z,101749.97
2023-01-05T09:07:01.162Z,101752.63
2023-01-05T09:09:27.911Z,101756.91
2023-01-05T09:12:01.117Z,101755.28
2023-01-05T09:14:27.850Z,101753.38
2023-01-05T09:17:09.029Z,101749.84
2023-01-05T09:19:36.771Z,101767.47
2023-01-05T09:22:10.150Z,101773.81
2023-01-05T09:24:37.803Z,101790.38
2023-01-05T09:27:12.250Z,101786.00
2023-01-05T09:29:39.025Z,101785.03
2023-01-05T09:32:13.150Z,101809.59
2023-01-05T09:34:46.266Z,101809.41
2023-01-05T09:37:19.210Z,101811.19
2023-01-05T09:39:47.201Z,101805.88
2023-01-05T09:42:27.148Z,101808.84
2023-01-05T09:45:09.301Z,101812.16
2023-01-05T09:47:49.191Z,101816.44
2023-01-05T09:50:29.362Z,101821.75
2023-01-05T09:53:00.217Z,101830.59
2023-01-05T09:55:37.228Z,101837.56
2023-01-05T09:58:26.271Z,101836.81
2023-01-05T10:01:21.191Z,101838.41
2023-01-05T10:04:12.291Z,101836.03
2023-01-05T10:06:50.220Z,101852.59
2023-01-05T10:09:23.784Z,101846.38
2023-01-05T10:12:24.182Z,101848.38
2023-01-05T10:15:03.175Z,101836.97
2023-01-05T10:17:43.188Z,101844.03
2023-01-05T10:20:29.265Z,101840.13
2023-01-05T10:23:08.314Z,101843.72
2023-01-05T10:25:46.111Z,101844.59
2023-01-05T10:28:41.243Z,101847.34
2023-01-05T10:31:31.235Z,101841.63
2023-01-05T10:34:18.707Z,101847.63
2023-01-05T10:37:14.239Z,101831.53
2023-01-05T10:40:17.460Z,101851.69
2023-01-05T10:43:02.237Z,101861.31
2023-01-05T10:45:30.951Z,101869.47
2023-01-05T10:48:06.171Z,101867.41
2023-01-05T10:50:38.243Z,101872.91
2023-01-05T10:53:33.250Z,101856.44
2023-01-05T10:56:29.592Z,101863.97
2023-01-05T10:59:19.474Z,101858.66
2023-01-05T11:01:49.478Z,101861.22
2023-01-05T11:04:35.494Z,101857.22
2023-01-05T11:07:05.661Z,101857.78
2023-01-05T11:09:39.327Z,101864.66
2023-01-05T11:12:13.224Z,101862.75
2023-01-05T11:15:00.272Z,101875.00
2023-01-05T11:17:29.339Z,101870.66
2023-01-05T11:20:04.344Z,101866.25
2023-01-05T11:22:44.571Z,101853.50
2023-01-05T11:25:37.290Z,101866.25
2023-01-05T11:28:10.962Z,101874.16
2023-01-05T11:31:04.268Z,101875.00
2023-01-05T11:33:41.392Z,101874.91
2023-01-05T11:36:15.302Z,101873.88
2023-01-05T11:38:42.127Z,101873.88
2023-01-05T11:41:18.249Z,101881.00
2023-01-05T11:43:47.947Z,101863.69
2023-01-05T11:46:22.412Z,101870.56
2023-01-05T11:48:55.711Z,101879.00
2023-01-05T11:51:48.261Z,101872.09
2023-01-05T11:54:37.133Z,101873.53
2023-01-05T11:57:25.347Z,101879.59
2023-01-05T12:00:37.363Z,101880.34
2023-01-05T12:03:35.564Z,101892.72
2023-01-05T12:06:22.614Z,101877.53
2023-01-05T12:09:21.265Z,101889.97
2023-01-05T12:12:14.110Z,101886.34
2023-01-05T12:15:05.264Z,101877.13
2023-01-05T12:17:34.664Z,101878.91
2023-01-05T12:20:32.233Z,101883.22
2023-01-05T12:23:19.319Z,101881.31
2023-01-05T12:26:25.334Z,101873.59
2023-01-05T12:33:44.551Z,101872.56
2023-01-05T12:35:20.292Z,101877.97
2023-01-05T12:38:20.370Z,101877.03
2023-01-05T12:41:01.994Z,101877.13
2023-01-05T12:43:41.316Z,101893.66
2023-01-05T12:46:48.026Z,101886.66
2023-01-05T12:49:30.361Z,101886.75
2023-01-05T12:52:14.350Z,101883.13
2023-01-05T12:54:54.346Z,101879.69
2023-01-05T12:57:52.297Z,101885.78
2023-01-05T13:00:27.461Z,101881.56
2023-01-05T13:03:03.147Z,101871.69
2023-01-05T13:05:46.416Z,101868.19
2023-01-05T13:08:17.713Z,101868.19
2023-01-05T13:11:06.268Z,101876.00
2023-01-05T13:13:41.532Z,101882.75
2023-01-05T13:16:22.368Z,101880.19
2023-01-05T13:19:06.172Z,101871.59
2023-01-05T13:21:41.358Z,101890.13
2023-01-05T13:24:40.379Z,101894.09
2023-01-05T13:27:13.369Z,101879.03
2023-01-05T13:29:44.388Z,101892.00
2023-01-05T13:32:46.407Z,101902.47
2023-01-05T13:35:22.268Z,101911.44
2023-01-05T13:38:25.382Z,101912.47
2023-01-05T13:41:35.301Z,101915.63
2023-01-05T13:44:27.260Z,101916.47
2023-01-05T13:47:35.284Z,101920.97
2023-01-05T13:50:07.013Z,101919.22
2023-01-05T13:53:06.405Z,101916.66
2023-01-05T13:55:37.298Z,101910.75
2023-01-05T14:01:15.452Z,101917.00
2023-01-05T14:03:57.562Z,101913.50
2023-01-05T14:06:35.542Z,101910.84
2023-01-05T14:09:36.811Z,101918.66
2023-01-05T14:12:09.854Z,101909.97
2023-01-05T14:15:09.065Z,101916.00
2023-01-05T14:18:00.774Z,101921.31
2023-01-05T14:20:34.681Z,101920.34
2023-01-05T14:23:29.896Z,101919.31
2023-01-05T14:26:04.387Z,101912.09
2023-01-05T14:28:38.864Z,101907.81
2023-01-05T14:31:08.994Z,101912.28
2023-01-05T14:33:59.975Z,101904.63
2023-01-05T14:36:42.896Z,101913.31
2023-01-05T14:39:19.988Z,101927.97
2023-01-05T14:42:01.207Z,101924.44
2023-01-05T14:44:49.696Z,101912.72
2023-01-05T14:47:33.233Z,101914.31
2023-01-05T14:50:10.637Z,101917.28
2023-01-05T14:53:00.498Z,101911.66
2023-01-05T14:55:39.936Z,101930.03
2023-01-05T14:58:49.889Z,101930.97
2023-01-05T15:01:17.686Z,101918.50
2023-01-05T15:04:01.818Z,101934.38
2023-01-05T15:06:53.641Z,101929.44
2023-01-05T15:10:04.768Z,101925.25
2023-01-05T15:12:52.924Z,101933.44
2023-01-05T15:15:48.629Z,101926.47
2023-01-05T15:18:30.855Z,101928.38
2023-01-05T15:21:18.432Z,101917.03
2023-01-05T15:24:12.185Z,101910.47
2023-01-05T15:27:09.545Z,101929.38
2023-01-05T15:30:21.722Z,101932.25
2023-01-05T15:33:04.736Z,101925.38
2023-01-05T15:36:03.536Z,101909.47
2023-01-05T15:38:39.014Z,101912.22
2023-01-05T15:41:17.711Z,101909.66
2023-01-05T15:43:45.737Z,101917.34
2023-01-05T15:46:24.791Z,101912.22
2023-01-05T15:49:01.771Z,101917.28
2023-01-05T15:51:40.260Z,101916.91
2023-01-05T15:54:28.686Z,101898.19
2023-01-05T15:56:56.955Z,101911.81
2023-01-05T15:59:46.520Z,101924.94
2023-01-05T16:02:36.053Z,101929.56
2023-01-05T16:05:17.988Z,101922.50
2023-01-05T16:07:54.638Z,101925.03
2023-01-05T16:10:51.905Z,101931.19
2023-01-05T16:13:30.060Z,101922.47
2023-01-05T16:16:04.018Z,101922.84
2023-01-05T16:18:51.707Z,101934.03
2023-01-05T16:21:40.400Z,101912.16
2023-01-05T16:24:19.608Z,101921.47
2023-01-05T16:26:48.075Z,101903.22
2023-01-05T16:29:36.981Z,101916.53
2023-01-05T16:32:06.473Z,101924.53
2023-01-05T16:34:40.699Z,101908.34
2023-01-05T16:37:25.746Z,101920.59
2023-01-05T16:40:02.723Z,101907.16
2023-01-05T16:42:46.962Z,101913.00
2023-01-05T16:45:25.203Z,101911.09
2023-01-05T16:48:00.632Z,101915.38
2023-01-05T16:50:30.724Z,101911.78
2023-01-05T16:53:12.663Z,101914.25
2023-01-05T16:55:40.639Z,101896.25
2023-01-05T16:58:37.373Z,101908.75
2023-01-05T17:01:20.749Z,101905.31
2023-01-05T17:03:54.674Z,101905.31
2023-01-05T17:06:33.656Z,101901.97
2023-01-05T17:09:09.988Z,101906.47
2023-01-05T17:11:38.438Z,101902.16
2023-01-05T17:14:14.886Z,101906.63
2023-01-05T17:16:43.006Z,101911.78
2023-01-05T17:19:23.971Z,101891.03
2023-01-05T17:21:57.354Z,101910.91
2023-01-05T17:24:33.987Z,101911.78
2023-01-05T17:27:02.562Z,101908.34
2023-01-05T17:29:38.599Z,101910.25
2023-01-05T17:32:06.281Z,101913.34
2023-01-05T17:34:40.615Z,101906.84
2023-01-05T17:37:14.505Z,101909.59
2023-01-05T17:39:47.717Z,101907.25
2023-01-05T17:42:39.512Z,101902.03
2023-01-05T17:45:07.092Z,101909.34
2023-01-05T17:47:40.490Z,101903.25
2023-01-05T17:50:08.521Z,101908.75
2023-01-05T17:52:42.426Z,101898.16
2023-01-05T17:55:09.758Z,101898.34
2023-01-05T17:57:43.428Z,101899.03
2023-01-05T18:00:25.421Z,101893.03
2023-01-05T18:03:00.526Z,101888.50
2023-01-05T18:05:27.663Z,101884.19
2023-01-05T18:08:01.851Z,101879.91
2023-01-05T18:10:29.533Z,101873.66
2023-01-05T18:13:03.643Z,101866.63
2023-01-05T18:15:30.891Z,101874.31
2023-01-05T18:18:05.697Z,101868.09
2023-01-05T18:20:39.557Z,101862.84
2023-01-05T18:25:42.586Z,101860.25
2023-01-05T18:28:10.433Z,101859.16
2023-01-05T18:30:47.915Z,101857.59
2023-01-05T18:33:21.596Z,101846.91
2023-01-05T18:38:30.684Z,101852.28
2023-01-05T18:41:04.606Z,101841.50
2023-01-05T18:43:35.599Z,101844.94
2023-01-05T18:46:09.562Z,101844.75
2023-01-05T18:48:36.464Z,101851.66
2023-01-05T18:51:14.479Z,101834.97
2023-01-05T18:53:41.144Z,101839.13
2023-01-05T18:56:17.454Z,101821.66
2023-01-05T18:58:50.652Z,101830.34
2023-01-05T19:01:25.614Z,101818.72
2023-01-05T19:03:54.174Z,101821.66
2023-01-05T19:06:31.474Z,101824.81
2023-01-05T19:09:03.533Z,101825.69
2023-01-05T19:11:37.837Z,101831.78
2023-01-05T19:14:06.475Z,101827.38
2023-01-05T19:16:41.472Z,101834.16
2023-01-05T19:19:18.637Z,101818.72
2023-01-05T19:21:46.218Z,101828.84
2023-01-05T19:24:25.473Z,101821.97
2023-01-05T19:26:59.578Z,101820.84
2023-01-05T19:29:33.652Z,101819.06
2023-01-05T19:32:00.699Z,101826.00
2023-01-05T19:34:34.638Z,101819.16
2023-01-05T19:37:03.691Z,101800.97
2023-01-05T19:39:37.526Z,101804.03
2023-01-05T19:42:04.765Z,101795.28
2023-01-05T19:44:38.631Z,101806.44
2023-01-05T19:47:05.540Z,101792.38
2023-01-05T19:49:39.633Z,101804.34
2023-01-05T19:52:06.363Z,101807.69
2023-01-05T19:54:40.711Z,101807.03
2023-01-05T19:57:08.069Z,101799.13
2023-01-05T19:59:47.694Z,101803.25
2023-01-05T20:02:21.879Z,101803.91
2023-01-05T20:04:49.790Z,101801.94
2023-01-05T20:07:23.681Z,101808.06
2023-01-05T20:09:51.888Z,101802.09
2023-01-05T20:12:26.178Z,101803.53
2023-01-05T20:14:53.129Z,101811.41
2023-01-05T20:17:28.633Z,101799.38
2023-01-05T20:19:55.509Z,101796.41
2023-01-05T20:22:29.781Z,101786.63
2023-01-05T20:24:57.572Z,101790.91
2023-01-05T20:27:37.349Z,101799.44
2023-01-05T20:30:05.141Z,101773.69
2023-01-05T20:32:41.588Z,101799.28
2023-01-05T20:35:12.632Z,101767.72
2023-01-05T20:37:47.078Z,101790.16
2023-01-05T20:40:20.911Z,101793.56
2023-01-05T20:43:08.760Z,101786.47
2023-01-05T20:45:52.321Z,101776.78
2023-01-05T20:48:20.883Z,101781.81
2023-01-05T20:50:58.825Z,101773.91
2023-01-05T20:53:26.059Z,101786.00
2023-01-05T20:56:00.759Z,101774.78
2023-01-05T20:58:49.196Z,101784.78
2023-01-05T21:01:23.667Z,101789.91
2023-01-05T21:03:51.217Z,101784.56
2023-01-05T21:06:26.930Z,101768.22
2023-01-05T21:09:01.866Z,101769.84
2023-01-05T21:11:36.901Z,101770.78
2023-01-05T21:14:06.423Z,101781.03
2023-01-05T21:16:43.751Z,101779.25
2023-01-05T21:19:13.083Z,101773.81
2023-01-05T21:21:46.720Z,101776.38
2023-01-05T21:24:15.041Z,101773.81
2023-01-05T21:26:43.291Z,101780.59
2023-01-05T21:29:19.706Z,101778.03
2023-01-05T21:31:53.549Z,101780.38
2023-01-05T21:34:27.739Z,101778.78
2023-01-05T21:36:55.333Z,101790.09
2023-01-05T21:39:31.875Z,101766.69
2023-01-05T21:42:17.772Z,101754.53
2023-01-05T21:44:51.769Z,101773.34
2023-01-05T21:47:18.763Z,101771.56
2023-01-05T21:49:52.690Z,101771.56
2023-01-05T21:52:38.542Z,101771.16
2023-01-05T21:55:57.778Z,101778.13
2023-01-05T21:58:24.833Z,101771.81
2023-01-05T22:01:05.730Z,101777.03
2023-01-05T22:03:33.606Z,101765.47
2023-01-05T22:06:08.696Z,101751.38
2023-01-05T22:08:36.100Z,101753.00
2023-01-05T22:11:11.711Z,101747.69
2023-01-05T22:13:41.354Z,101740.72
2023-01-05T22:16:15.824Z,101737.88
2023-01-05T22:18:43.239Z,101735.19
2023-01-05T22:21:17.703Z,101729.88
2023-01-05T22:23:46.363Z,101732.53
2023-01-05T22:26:24.705Z,101730.53
2023-01-05T22:28:52.525Z,101715.72
2023-01-05T22:31:35.040Z,101720.53
2023-01-05T22:34:09.943Z,101713.72
2023-01-05T22:36:41.071Z,101712.97
2023-01-05T22:39:14.740Z,101728.44
2023-01-05T22:41:48.866Z,101718.75
2023-01-05T22:44:22.833Z,101716.09
2023-01-05T22:46:56.943Z,101728.16
2023-01-05T22:49:30.556Z,101712.44
2023-01-05T22:51:58.880Z,101721.75
2023-01-05T22:54:32.719Z,101713.22
2023-01-05T22:57:03.830Z,101708.75
2023-01-05T22:59:43.881Z,101701.63
2023-01-05T23:02:18.166Z,101692.00
2023-01-05T23:04:51.699Z,101713.88
2023-01-05T23:07:21.982Z,101712.28
2023-01-05T23:09:55.872Z,101699.25
2023-01-05T23:12:25.632Z,101701.53
2023-01-05T23:14:52.723Z,101700.38
2023-01-05T23:17:27.244Z,101705.59
2023-01-05T23:19:54.127Z,101708.91
2023-01-05T23:22:27.858Z,101696.84
2023-01-05T23:24:55.133Z,101712.34
2023-01-05T23:27:28.856Z,101702.53
2023-01-05T23:29:56.059Z,101698.91
2023-01-05T23:32:23.536Z,101693.50
2023-01-05T23:34:56.849Z,101695.41
2023-01-05T23:37:23.754Z,101696.25
2023-01-05T23:39:57.719Z,101689.31
2023-01-05T23:42:43.396Z,101696.38
2023-01-05T23:45:17.974Z,101691.78
2023-01-05T23:47:45.574Z,101696.16
2023-01-05T23:50:19.802Z,101686.53
2023-01-05T23:52:47.400Z,101684.75
2023-01-05T23:55:20.604Z,101677.72
2023-01-05T23:57:53.913Z,101677.72
